Time;durP1;ratioP1;P1;durP2;ratioP2;P2;SDS_P1;SDS_P2;PMS_P1;PMS_P2;Temp;Humidity;BMP_temperature;BMP_pressure;BME280_temperature;BME280_humidity;BME280_pressure;Samples;Min_cycle;Max_cycle;Signal;HPM_P1;HPM_P2
2022/04/05 00:01:57;;;;;;;39.30;16.80;;;10.20;99.90;;;;;;5038161;28;20646;-62
2022/04/05 00:04:26;;;;;;;40.27;17.90;;;10.20;99.90;;;;;;5019973;28;20186;-62
2022/04/05 00:06:55;;;;;;;37.07;16.63;;;10.20;99.90;;;;;;5040921;28;20223;-62
2022/04/05 00:09:24;;;;;;;39.03;17.37;;;10.20;99.90;;;;;;5040622;28;20232;-63
2022/04/05 00:11:53;;;;;;;34.67;16.27;;;10.20;99.90;;;;;;5011447;28;20200;-63
2022/04/05 00:14:23;;;;;;;46.67;17.03;;;10.20;99.90;;;;;;5032111;28;20808;-62
2022/04/05 00:16:52;;;;;;;43.60;16.77;;;10.20;99.90;;;;;;5013211;28;20217;-63
2022/04/05 00:19:22;;;;;;;36.27;16.03;;;10.20;99.90;;;;;;5018765;28;20694;-63
2022/04/05 00:21:51;;;;;;;39.07;16.00;;;10.20;99.90;;;;;;5035285;28;20935;-62
2022/04/05 00:24:20;;;;;;;31.70;17.07;;;10.20;99.90;;;;;;5036908;28;20251;-62
2022/04/05 00:26:49;;;;;;;38.43;16.93;;;10.20;99.90;;;;;;5035363;28;20315;-63
2022/04/05 00:29:19;;;;;;;35.43;16.90;;;10.20;99.90;;;;;;5010088;28;20194;-63
2022/04/05 00:31:49;;;;;;;34.13;17.53;;;10.20;99.90;;;;;;5034524;28;20205;-63
2022/04/05 00:34:17;;;;;;;36.03;17.07;;;10.20;99.90;;;;;;5012414;28;20201;-63
2022/04/05 00:36:46;;;;;;;32.87;17.03;;;10.20;99.90;;;;;;5037345;28;20220;-62
2022/04/05 00:39:15;;;;;;;47.23;18.63;;;10.20;99.90;;;;;;5035233;28;20240;-62
2022/04/05 00:41:43;;;;;;;36.37;18.13;;;10.20;99.90;;;;;;5033639;28;20658;-62
2022/04/05 00:44:12;;;;;;;34.43;17.23;;;10.20;99.90;;;;;;5032425;28;20746;-63
2022/04/05 00:46:40;;;;;;;34.73;18.33;;;10.20;99.90;;;;;;5034526;28;20205;-62
2022/04/05 00:49:16;;;;;;;36.33;18.50;;;10.20;99.90;;;;;;5030218;28;20197;-62
2022/04/05 00:51:44;;;;;;;41.70;18.20;;;10.20;99.90;;;;;;5017505;28;20286;-62
2022/04/05 00:54:14;;;;;;;39.83;17.87;;;10.30;99.90;;;;;;5013687;28;20225;-62
2022/04/05 00:56:45;;;;;;;39.03;18.07;;;10.20;99.90;;;;;;5033122;28;20585;-63
2022/04/05 00:59:16;;;;;;;35.63;18.00;;;10.20;99.90;;;;;;5013125;28;20292;-63
2022/04/05 01:01:46;;;;;;;42.70;18.70;;;10.20;99.90;;;;;;5029481;28;20204;-62
2022/04/05 01:04:17;;;;;;;38.53;20.37;;;10.20;99.90;;;;;;5030702;28;20258;-62
2022/04/05 01:06:46;;;;;;;44.63;19.53;;;10.20;99.90;;;;;;5015770;28;20193;-63
2022/04/05 01:09:15;;;;;;;47.73;20.17;;;10.30;99.90;;;;;;5031433;28;20228;-62
2022/04/05 01:11:45;;;;;;;36.60;17.70;;;10.30;99.90;;;;;;5034189;28;20263;-62
2022/04/05 01:14:13;;;;;;;41.53;17.80;;;10.30;99.90;;;;;;5022341;28;20814;-62
2022/04/05 01:16:42;;;;;;;40.77;18.37;;;10.30;99.90;;;;;;5034595;28;20207;-62
2022/04/05 01:19:10;;;;;;;35.60;17.87;;;10.30;99.90;;;;;;5020357;28;20205;-63
2022/04/05 01:21:40;;;;;;;40.47;18.77;;;10.30;99.90;;;;;;5038325;28;20201;-62
2022/04/05 01:24:11;;;;;;;37.63;18.37;;;10.30;99.90;;;;;;5029997;28;20232;-62
2022/04/05 01:26:42;;;;;;;41.73;17.83;;;10.30;99.90;;;;;;5037897;28;20311;-62
2022/04/05 01:29:11;;;;;;;44.10;18.77;;;10.20;99.90;;;;;;5036391;28;20204;-62
2022/04/05 01:31:41;;;;;;;41.83;18.23;;;10.30;99.90;;;;;;5039854;28;20331;-62
2022/04/05 01:34:10;;;;;;;47.47;18.93;;;10.30;99.90;;;;;;5036368;28;20192;-63
2022/04/05 01:36:43;;;;;;;43.97;17.97;;;10.30;99.90;;;;;;5044915;28;20714;-62
2022/04/05 01:39:15;;;;;;;46.70;18.87;;;10.30;99.90;;;;;;5036348;28;20762;-62
2022/04/05 01:41:44;;;;;;;39.43;17.67;;;10.30;99.90;;;;;;5038724;28;20300;-62
2022/04/05 01:44:16;;;;;;;37.57;17.13;;;10.30;99.90;;;;;;5041048;28;20200;-62
2022/04/05 01:46:45;;;;;;;40.77;17.27;;;10.30;99.90;;;;;;5041428;28;20209;-63
2022/04/05 01:49:14;;;;;;;36.20;17.30;;;10.30;99.90;;;;;;5031305;28;20199;-62
2022/04/05 01:51:44;;;;;;;37.30;16.87;;;10.30;99.90;;;;;;5019761;28;20560;-62
2022/04/05 01:54:16;;;;;;;37.00;17.03;;;10.30;99.90;;;;;;5017512;28;20288;-62
2022/04/05 01:56:47;;;;;;;34.23;15.57;;;10.30;99.90;;;;;;5035950;28;20279;-62
2022/04/05 01:59:17;;;;;;;34.37;16.07;;;10.30;99.90;;;;;;5034445;28;20198;-63
2022/04/05 02:01:47;;;;;;;34.77;16.63;;;10.30;99.90;;;;;;5032051;28;20244;-62
2022/04/05 02:04:16;;;;;;;34.17;16.17;;;10.30;99.90;;;;;;5035619;28;20311;-62
2022/04/05 02:06:46;;;;;;;36.10;16.23;;;10.30;99.90;;;;;;5020707;28;20638;-63
2022/04/05 02:09:17;;;;;;;39.93;16.13;;;10.30;99.90;;;;;;5039622;28;20203;-62
2022/04/05 02:11:47;;;;;;;36.63;15.77;;;10.30;99.90;;;;;;5033276;28;20251;-62
2022/04/05 02:14:17;;;;;;;37.33;15.43;;;10.40;99.90;;;;;;5012582;28;20233;-62
2022/04/05 02:16:45;;;;;;;33.30;14.30;;;10.30;99.90;;;;;;5032180;28;20207;-62
2022/04/05 02:19:14;;;;;;;29.53;15.27;;;10.30;99.90;;;;;;5033761;28;20204;-63
2022/04/05 02:21:43;;;;;;;26.50;14.30;;;10.30;99.90;;;;;;5034763;28;20221;-62
2022/04/05 02:24:10;;;;;;;34.90;15.63;;;10.30;99.90;;;;;;5039903;28;20205;-62
2022/04/05 02:26:40;;;;;;;31.57;15.63;;;10.30;99.90;;;;;;5043689;28;20647;-62
2022/04/05 02:29:09;;;;;;;33.00;15.00;;;10.30;99.90;;;;;;5039882;28;20284;-63
2022/04/05 02:31:38;;;;;;;38.10;15.43;;;10.30;99.90;;;;;;5033562;28;20197;-62
2022/04/05 02:34:07;;;;;;;32.27;14.80;;;10.30;99.90;;;;;;5040190;28;20207;-63
2022/04/05 02:36:35;;;;;;;29.23;14.77;;;10.30;99.90;;;;;;5042143;28;20199;-62
2022/04/05 02:39:07;;;;;;;28.43;15.07;;;10.30;99.90;;;;;;5041985;28;20198;-62
2022/04/05 02:41:35;;;;;;;34.20;15.40;;;10.30;99.90;;;;;;5035181;28;20301;-62
2022/04/05 02:44:06;;;;;;;32.27;14.50;;;10.40;99.90;;;;;;5041740;28;20248;-62
2022/04/05 02:46:35;;;;;;;25.20;14.87;;;10.30;99.90;;;;;;5039982;28;20208;-63
2022/04/05 02:49:04;;;;;;;29.33;14.87;;;10.30;99.90;;;;;;5012984;28;20276;-63
2022/04/05 02:51:32;;;;;;;33.03;15.03;;;10.40;99.90;;;;;;5040790;28;20275;-63
2022/04/05 02:54:01;;;;;;;33.10;15.73;;;10.30;99.90;;;;;;5041920;28;20201;-62
2022/04/05 02:56:30;;;;;;;34.47;16.27;;;10.30;99.90;;;;;;5037655;28;20350;-62
2022/04/05 02:58:59;;;;;;;29.20;14.57;;;10.30;99.90;;;;;;5020242;28;20308;-63
2022/04/05 03:01:29;;;;;;;28.97;15.77;;;10.30;99.90;;;;;;5021370;28;20217;-62
2022/04/05 03:04:02;;;;;;;32.17;15.83;;;10.20;99.90;;;;;;5037318;28;20204;-62
2022/04/05 03:06:30;;;;;;;32.57;15.80;;;10.30;99.90;;;;;;5038129;28;20724;-62
2022/04/05 03:09:00;;;;;;;33.33;16.30;;;10.20;99.90;;;;;;5039513;28;20193;-63
2022/04/05 03:11:28;;;;;;;31.43;15.73;;;10.20;99.90;;;;;;5040170;28;20193;-62
2022/04/05 03:13:57;;;;;;;34.73;16.30;;;10.20;99.90;;;;;;5016876;28;20197;-62
2022/04/05 03:16:25;;;;;;;28.47;17.10;;;10.20;99.90;;;;;;5029887;28;20316;-63
2022/04/05 03:18:55;;;;;;;34.93;16.93;;;10.30;99.90;;;;;;5032575;28;20258;-62
2022/04/05 03:21:26;;;;;;;29.93;16.80;;;10.30;99.90;;;;;;5034338;28;20299;-62
2022/04/05 03:23:54;;;;;;;29.33;16.30;;;10.30;99.90;;;;;;5033886;28;20193;-63
2022/04/05 03:26:23;;;;;;;30.23;16.67;;;10.30;99.90;;;;;;5033123;28;20225;-62
2022/04/05 03:28:52;;;;;;;31.20;16.37;;;10.30;99.90;;;;;;5023369;28;20220;-62
2022/04/05 03:31:20;;;;;;;30.93;16.77;;;10.30;99.90;;;;;;5038661;28;20671;-62
2022/04/05 03:33:49;;;;;;;28.93;14.27;;;10.30;99.90;;;;;;5031945;28;20205;-62
2022/04/05 03:36:19;;;;;;;27.13;14.83;;;10.30;99.90;;;;;;5029188;28;20209;-63
2022/04/05 03:38:48;;;;;;;29.83;14.30;;;10.40;99.90;;;;;;5034104;28;20205;-62
2022/04/05 03:41:16;;;;;;;28.83;13.63;;;10.30;99.90;;;;;;5034606;28;20216;-63
2022/04/05 03:43:45;;;;;;;30.17;13.70;;;10.30;99.90;;;;;;5038794;28;20200;-62
2022/04/05 03:46:13;;;;;;;31.43;14.73;;;10.30;99.90;;;;;;5036074;28;20206;-63
2022/04/05 03:48:42;;;;;;;31.80;14.27;;;10.30;99.90;;;;;;5016275;28;20196;-63
2022/04/05 03:51:11;;;;;;;28.07;14.67;;;10.30;99.90;;;;;;5039256;28;20201;-62
2022/04/05 03:53:40;;;;;;;33.53;15.30;;;10.30;99.90;;;;;;5036147;28;20193;-62
2022/04/05 03:56:09;;;;;;;32.57;14.27;;;10.30;99.90;;;;;;5036942;28;20197;-62
2022/04/05 03:58:38;;;;;;;33.87;14.30;;;10.30;99.90;;;;;;5035248;28;20201;-62
2022/04/05 04:01:06;;;;;;;29.87;14.60;;;10.30;99.90;;;;;;5037018;28;20217;-62
2022/04/05 04:03:35;;;;;;;33.07;14.90;;;10.30;99.90;;;;;;5033758;28;20263;-63
2022/04/05 04:06:04;;;;;;;28.30;14.97;;;10.30;99.90;;;;;;5019092;28;20189;-62
2022/04/05 04:08:32;;;;;;;29.73;15.97;;;10.30;99.90;;;;;;5015965;28;20189;-62
2022/04/05 04:11:03;;;;;;;28.10;14.30;;;10.30;99.90;;;;;;5037207;28;20207;-62
2022/04/05 04:13:32;;;;;;;31.77;15.53;;;10.30;99.90;;;;;;5034420;28;20622;-62
2022/04/05 04:16:01;;;;;;;30.23;15.20;;;10.30;99.90;;;;;;5033818;28;20199;-62
2022/04/05 04:18:30;;;;;;;28.03;15.27;;;10.40;99.90;;;;;;5038657;28;20678;-62
2022/04/05 04:20:59;;;;;;;32.60;15.13;;;10.40;99.90;;;;;;5036771;28;21029;-62
2022/04/05 04:23:27;;;;;;;27.77;14.27;;;10.40;99.90;;;;;;5021545;28;20250;-62
2022/04/05 04:25:56;;;;;;;24.33;13.43;;;10.40;99.90;;;;;;5038719;28;20224;-62
2022/04/05 04:28:26;;;;;;;34.03;13.57;;;10.40;99.90;;;;;;5020776;28;20574;-63
2022/04/05 04:30:55;;;;;;;27.57;14.03;;;10.40;99.90;;;;;;5032700;28;20205;-62
2022/04/05 04:33:23;;;;;;;28.03;13.90;;;10.30;99.90;;;;;;5040478;28;20205;-62
2022/04/05 04:35:53;;;;;;;23.83;13.80;;;10.30;99.90;;;;;;5025976;28;20205;-62
2022/04/05 04:38:22;;;;;;;24.43;12.90;;;10.30;99.90;;;;;;5029904;28;20225;-62
2022/04/05 04:40:51;;;;;;;21.27;12.70;;;10.30;99.90;;;;;;5038797;28;20201;-62
2022/04/05 04:43:23;;;;;;;21.27;13.30;;;10.30;99.90;;;;;;5015180;28;20201;-62
2022/04/05 04:45:56;;;;;;;23.63;13.43;;;10.30;99.90;;;;;;5031136;28;20200;-62
2022/04/05 04:48:24;;;;;;;25.00;14.40;;;10.30;99.90;;;;;;5029879;28;21713;-62
2022/04/05 04:50:53;;;;;;;18.70;12.57;;;10.30;99.90;;;;;;5034165;28;20201;-63
2022/04/05 04:53:22;;;;;;;21.63;12.73;;;10.30;99.90;;;;;;5034265;28;20297;-62
2022/04/05 04:55:51;;;;;;;23.63;12.43;;;10.30;99.90;;;;;;5034165;28;20277;-62
2022/04/05 04:58:33;;;;;;;19.20;11.90;;;10.30;99.90;;;;;;5035383;28;20563;-62
2022/04/05 05:01:03;;;;;;;26.73;13.17;;;10.30;99.90;;;;;;5036077;28;20198;-62
2022/04/05 05:03:32;;;;;;;19.40;11.90;;;10.30;99.90;;;;;;5033232;28;20198;-62
2022/04/05 05:06:01;;;;;;;22.20;12.07;;;10.30;99.90;;;;;;5031785;28;20203;-62
2022/04/05 05:08:30;;;;;;;19.03;12.00;;;10.20;99.90;;;;;;5034034;28;20200;-62
2022/04/05 05:10:59;;;;;;;21.03;11.97;;;10.30;99.90;;;;;;5033926;28;20486;-62
2022/04/05 05:13:28;;;;;;;19.30;11.20;;;10.20;99.90;;;;;;5033237;28;20713;-62
2022/04/05 05:15:57;;;;;;;16.67;11.10;;;10.20;99.90;;;;;;5037266;28;20279;-62
2022/04/05 05:18:27;;;;;;;22.17;12.10;;;10.20;99.90;;;;;;5038074;28;20212;-62
2022/04/05 05:20:55;;;;;;;21.13;12.33;;;10.30;99.90;;;;;;5044264;28;20203;-62
2022/04/05 05:23:24;;;;;;;19.37;11.07;;;10.20;99.90;;;;;;5039867;28;20694;-62
2022/04/05 05:25:53;;;;;;;19.23;12.70;;;10.20;99.90;;;;;;5021985;28;20240;-62
2022/04/05 05:28:22;;;;;;;20.37;11.50;;;10.20;99.90;;;;;;5042365;28;20193;-62
2022/04/05 05:30:50;;;;;;;22.23;11.43;;;10.20;99.90;;;;;;5038893;28;20224;-62
2022/04/05 05:33:19;;;;;;;20.73;11.97;;;10.20;99.90;;;;;;5034308;28;20197;-63
2022/04/05 05:35:50;;;;;;;21.20;11.80;;;10.20;99.90;;;;;;5039434;28;20197;-63
2022/04/05 05:38:18;;;;;;;22.90;11.97;;;10.30;99.90;;;;;;5036940;28;20611;-62
2022/04/05 05:40:47;;;;;;;19.77;11.73;;;10.30;99.90;;;;;;5034136;28;20201;-62
2022/04/05 05:43:15;;;;;;;18.00;11.73;;;10.30;99.90;;;;;;5031423;28;20216;-62
2022/04/05 05:45:44;;;;;;;18.00;11.93;;;10.30;99.90;;;;;;5020944;28;20224;-63
2022/04/05 05:48:13;;;;;;;19.60;12.30;;;10.30;99.90;;;;;;5015734;28;20300;-62
2022/04/05 05:50:42;;;;;;;20.53;11.87;;;10.40;99.90;;;;;;5034968;28;20221;-62
2022/04/05 05:53:14;;;;;;;17.53;12.33;;;10.30;99.90;;;;;;5032742;28;20198;-62
2022/04/05 05:55:44;;;;;;;20.17;12.03;;;10.30;99.90;;;;;;5036258;28;20223;-62
2022/04/05 05:58:13;;;;;;;27.03;12.03;;;10.30;99.90;;;;;;5030886;28;20194;-63
2022/04/05 06:00:42;;;;;;;19.57;11.80;;;10.40;99.90;;;;;;5042725;28;20597;-62
2022/04/05 06:03:13;;;;;;;17.90;12.07;;;10.40;99.90;;;;;;5036904;28;20300;-62
2022/04/05 06:05:43;;;;;;;26.83;12.03;;;10.40;99.90;;;;;;5015234;28;20189;-62
2022/04/05 06:08:13;;;;;;;21.13;12.13;;;10.40;99.90;;;;;;5037702;28;20196;-62
2022/04/05 06:10:43;;;;;;;23.87;12.83;;;10.50;99.90;;;;;;5036093;28;20197;-62
2022/04/05 06:13:12;;;;;;;22.13;12.60;;;10.50;99.90;;;;;;5034026;28;20687;-63
2022/04/05 06:15:41;;;;;;;22.43;12.73;;;10.50;99.90;;;;;;5035590;28;20263;-62
2022/04/05 06:18:09;;;;;;;24.47;12.40;;;10.50;99.90;;;;;;5042899;28;20259;-63
2022/04/05 06:20:38;;;;;;;23.37;12.37;;;10.60;99.90;;;;;;5037192;28;20569;-63
2022/04/05 06:23:07;;;;;;;22.27;11.90;;;10.60;99.90;;;;;;5036038;28;20686;-63
2022/04/05 06:25:38;;;;;;;20.70;12.63;;;10.60;99.90;;;;;;5034595;28;20736;-62
2022/04/05 06:28:10;;;;;;;25.53;12.70;;;10.60;99.90;;;;;;5037063;28;20599;-62
2022/04/05 06:30:42;;;;;;;20.07;12.63;;;10.70;99.90;;;;;;5042417;28;20681;-63
2022/04/05 06:33:13;;;;;;;17.27;12.20;;;10.70;99.90;;;;;;5023433;28;20181;-62
2022/04/05 06:35:43;;;;;;;16.97;11.80;;;10.70;99.90;;;;;;5032869;28;20193;-62
2022/04/05 06:38:12;;;;;;;17.57;11.50;;;10.80;99.90;;;;;;5039017;28;20194;-62
2022/04/05 06:40:45;;;;;;;17.10;11.63;;;10.80;99.90;;;;;;5017905;28;20280;-63
2022/04/05 06:43:17;;;;;;;19.17;11.77;;;10.80;99.90;;;;;;5038778;28;20206;-63
2022/04/05 06:45:45;;;;;;;19.77;11.97;;;10.80;99.90;;;;;;5045052;28;20675;-63
2022/04/05 06:48:14;;;;;;;16.37;12.20;;;10.80;99.90;;;;;;5035669;28;20205;-69
2022/04/05 06:50:43;;;;;;;19.63;12.00;;;10.90;99.90;;;;;;5033174;28;20224;-62
2022/04/05 06:53:11;;;;;;;20.87;11.30;;;10.90;99.90;;;;;;5031101;28;20718;-66
2022/04/05 06:55:40;;;;;;;20.93;11.47;;;10.90;99.90;;;;;;5031851;28;20658;-64
2022/04/05 06:58:09;;;;;;;16.07;11.07;;;11.00;99.90;;;;;;5030095;28;20679;-63
2022/04/05 07:00:40;;;;;;;17.73;11.33;;;11.00;99.90;;;;;;5028956;28;20202;-66
2022/04/05 07:03:11;;;;;;;15.77;11.07;;;11.10;99.90;;;;;;5023570;28;20754;-63
2022/04/05 07:05:40;;;;;;;18.07;11.47;;;11.10;99.90;;;;;;5015411;28;20675;-65
2022/04/05 07:08:10;;;;;;;12.90;10.80;;;11.20;99.90;;;;;;5032236;28;20247;-68
2022/04/05 07:10:38;;;;;;;15.13;10.77;;;11.20;99.90;;;;;;5031055;28;20255;-65
2022/04/05 07:13:08;;;;;;;15.47;10.10;;;11.20;99.90;;;;;;5031525;28;20194;-63
2022/04/05 07:15:36;;;;;;;15.00;9.97;;;11.20;99.90;;;;;;5031449;28;20276;-65
2022/04/05 07:18:09;;;;;;;14.57;9.93;;;11.20;99.90;;;;;;5018215;28;20244;-66
2022/04/05 07:20:38;;;;;;;12.00;10.50;;;11.20;99.90;;;;;;5039819;28;20279;-63
2022/04/05 07:23:07;;;;;;;14.57;10.20;;;11.20;99.90;;;;;;5031998;28;20214;-63
2022/04/05 07:25:36;;;;;;;16.37;10.50;;;11.30;99.90;;;;;;5035441;28;20193;-63
2022/04/05 07:28:06;;;;;;;12.70;10.10;;;11.30;99.90;;;;;;5033191;28;20201;-63
2022/04/05 07:30:34;;;;;;;14.93;10.53;;;11.40;99.90;;;;;;5035875;28;20205;-63
2022/04/05 07:33:03;;;;;;;15.70;10.63;;;11.40;99.90;;;;;;5021117;28;20192;-63
2022/04/05 07:35:33;;;;;;;15.23;10.63;;;11.40;99.90;;;;;;5021898;28;20231;-63
2022/04/05 07:38:01;;;;;;;13.80;10.07;;;11.50;99.90;;;;;;5037389;28;20204;-63
2022/04/05 07:40:47;;;;;;;15.03;10.03;;;11.40;99.90;;;;;;5036754;28;20288;-63
2022/04/05 07:43:17;;;;;;;16.03;9.90;;;11.50;99.90;;;;;;5035895;28;20216;-63
2022/04/05 07:45:48;;;;;;;14.70;11.03;;;11.50;99.90;;;;;;5039786;28;20208;-63
2022/04/05 07:48:17;;;;;;;21.93;10.37;;;11.40;99.90;;;;;;5040685;28;20231;-63
2022/04/05 07:50:48;;;;;;;17.67;10.90;;;11.40;99.90;;;;;;5036362;28;20631;-63
2022/04/05 07:53:17;;;;;;;13.87;10.17;;;11.40;99.90;;;;;;5033121;28;20205;-63
2022/04/05 07:55:46;;;;;;;17.13;11.03;;;11.40;99.90;;;;;;5034860;28;20205;-63
2022/04/05 07:58:15;;;;;;;14.80;11.47;;;11.40;99.90;;;;;;5031691;28;20280;-63
2022/04/05 08:00:43;;;;;;;14.23;10.27;;;11.40;99.90;;;;;;5014451;28;20260;-63
2022/04/05 08:03:12;;;;;;;16.67;10.60;;;11.40;99.90;;;;;;5033041;28;20232;-63
2022/04/05 08:05:41;;;;;;;14.97;10.80;;;11.40;99.90;;;;;;5033049;28;20208;-63
2022/04/05 08:08:11;;;;;;;13.30;10.60;;;11.50;99.90;;;;;;5032782;28;20691;-63
2022/04/05 08:11:00;;;;;;;11.20;10.10;;;11.60;99.90;;;;;;5036998;28;20751;-63
2022/04/05 08:13:28;;;;;;;16.10;10.93;;;11.60;99.90;;;;;;5033267;28;20202;-63
2022/04/05 08:15:57;;;;;;;15.60;12.03;;;11.70;99.90;;;;;;5029584;28;20280;-63
2022/04/05 08:18:25;;;;;;;13.90;10.30;;;11.90;99.90;;;;;;5033232;28;20291;-63
2022/04/05 08:20:54;;;;;;;12.40;10.10;;;12.00;99.90;;;;;;5030527;28;20209;-63
2022/04/05 08:23:24;;;;;;;12.47;10.20;;;12.10;99.90;;;;;;5030670;28;20227;-63
2022/04/05 08:25:53;;;;;;;13.87;9.87;;;12.10;99.90;;;;;;5029208;28;20245;-63
2022/04/05 08:28:22;;;;;;;13.40;10.63;;;12.20;99.90;;;;;;5032400;28;20208;-63
2022/04/05 08:30:50;;;;;;;10.70;9.60;;;12.20;99.90;;;;;;5037466;28;20210;-63
2022/04/05 08:33:19;;;;;;;10.77;9.63;;;12.20;99.90;;;;;;5031188;28;20276;-63
2022/04/05 08:35:48;;;;;;;10.70;9.53;;;12.30;99.90;;;;;;5035117;28;20205;-63
2022/04/05 08:38:16;;;;;;;10.27;9.27;;;12.30;99.90;;;;;;5036166;28;20275;-63
2022/04/05 08:40:46;;;;;;;12.67;9.10;;;12.40;99.90;;;;;;5039863;28;20203;-63
2022/04/05 08:43:15;;;;;;;11.20;8.30;;;12.40;99.90;;;;;;5035407;28;20284;-63
2022/04/05 08:45:58;;;;;;;9.27;8.33;;;12.40;99.90;;;;;;5035715;28;20271;-63
2022/04/05 08:48:28;;;;;;;9.30;8.17;;;12.20;99.90;;;;;;5017728;28;20204;-63
2022/04/05 08:50:58;;;;;;;10.60;8.93;;;12.20;99.90;;;;;;5036841;28;20205;-63
2022/04/05 08:53:28;;;;;;;11.03;9.37;;;12.10;99.90;;;;;;5036082;28;20654;-63
2022/04/05 08:55:58;;;;;;;13.73;9.63;;;12.10;99.90;;;;;;5032972;28;20228;-63
2022/04/05 08:58:27;;;;;;;9.87;8.97;;;12.10;99.90;;;;;;5029483;28;20280;-63
2022/04/05 09:00:55;;;;;;;11.30;8.73;;;12.20;99.90;;;;;;5010475;28;20232;-63
2022/04/05 09:03:23;;;;;;;10.03;9.03;;;12.20;99.90;;;;;;5029499;28;20197;-63
2022/04/05 09:05:53;;;;;;;9.87;8.87;;;12.20;99.90;;;;;;5029767;28;20201;-63
2022/04/05 09:08:23;;;;;;;9.93;8.10;;;12.30;99.90;;;;;;5029995;28;20280;-63
2022/04/05 09:10:53;;;;;;;8.83;8.00;;;12.30;99.90;;;;;;5012865;28;20209;-63
2022/04/05 09:13:26;;;;;;;9.40;8.50;;;12.40;99.90;;;;;;5027846;28;20255;-63
2022/04/05 09:15:58;;;;;;;8.63;7.93;;;12.40;99.90;;;;;;5031746;28;20205;-63
2022/04/05 09:18:29;;;;;;;8.30;7.60;;;12.60;99.90;;;;;;5033722;28;20207;-63
2022/04/05 09:20:58;;;;;;;8.43;7.47;;;12.70;99.90;;;;;;5033703;28;20566;-63
2022/04/05 09:23:27;;;;;;;8.40;7.60;;;12.80;99.90;;;;;;5016910;28;20264;-63
2022/04/05 09:25:58;;;;;;;8.13;7.40;;;12.90;99.90;;;;;;5028489;28;20248;-63
2022/04/05 09:28:30;;;;;;;7.87;7.17;;;12.90;99.90;;;;;;5028565;28;20281;-63
2022/04/05 09:31:06;;;;;;;8.47;7.67;;;12.90;99.90;;;;;;5030431;28;20201;-63
2022/04/05 09:33:36;;;;;;;9.03;8.20;;;13.00;99.90;;;;;;5035872;28;20666;-63
2022/04/05 09:36:11;;;;;;;8.50;7.60;;;12.90;99.90;;;;;;5039858;28;20205;-63
2022/04/05 09:38:41;;;;;;;8.37;7.57;;;12.80;99.90;;;;;;5040829;28;20801;-63
2022/04/05 09:41:19;;;;;;;8.30;7.60;;;12.80;99.90;;;;;;5016120;28;20288;-63
2022/04/05 09:43:58;;;;;;;8.63;7.83;;;12.70;99.90;;;;;;5034083;28;20204;-63
2022/04/05 09:46:28;;;;;;;8.37;7.63;;;12.70;99.90;;;;;;5028833;28;20221;-63
2022/04/05 09:49:11;;;;;;;8.87;7.97;;;12.60;99.90;;;;;;5036616;28;20209;-63
2022/04/05 09:51:42;;;;;;;8.53;7.70;;;12.60;99.90;;;;;;5028188;28;20193;-63
2022/04/05 09:54:29;;;;;;;10.23;9.27;;;12.70;99.90;;;;;;5012656;28;20775;-63
2022/04/05 09:57:03;;;;;;;9.37;8.50;;;12.80;99.90;;;;;;5040530;28;20271;-64
2022/04/05 09:59:40;;;;;;;9.10;8.30;;;12.90;99.90;;;;;;5033958;28;20228;-63
2022/04/05 10:02:11;;;;;;;9.07;8.27;;;13.00;99.90;;;;;;5009169;28;20215;-63
2022/04/05 10:05:01;;;;;;;9.60;8.70;;;12.90;99.90;;;;;;5013864;28;20209;-66
2022/04/05 10:29:45;;;;;;;10.50;9.50;;;13.00;99.90;;;;;;5136518;27;20575;-61
2022/04/05 10:32:25;;;;;;;10.00;9.10;;;12.90;99.90;;;;;;5131316;27;20234;-62
2022/04/05 10:34:58;;;;;;;8.90;8.20;;;12.90;99.90;;;;;;5134290;27;20239;-61
2022/04/05 10:37:32;;;;;;;9.03;8.17;;;12.80;99.90;;;;;;5129526;27;20205;-62
2022/04/05 10:40:15;;;;;;;9.50;8.60;;;12.80;99.90;;;;;;5128175;27;20206;-61
2022/04/05 10:42:46;;;;;;;9.40;8.43;;;13.00;99.90;;;;;;5122056;27;20273;-61
2022/04/05 10:45:18;;;;;;;9.10;8.30;;;13.20;99.90;;;;;;5126427;27;20226;-61
2022/04/05 10:48:18;;;;;;;9.87;8.63;;;13.40;99.90;;;;;;5128447;27;20204;-64
2022/04/05 10:51:31;;;;;;;8.60;7.87;;;13.60;99.90;;;;;;5077302;28;20199;-62
2022/04/05 10:54:22;;;;;;;8.27;7.57;;;13.70;99.90;;;;;;5119309;27;20301;-61
2022/04/05 10:57:34;;;;;;;7.60;7.00;;;13.70;99.90;;;;;;5140050;27;20210;-61
2022/04/05 11:00:08;;;;;;;7.53;6.93;;;13.60;99.90;;;;;;5141158;27;20202;-61
2022/04/05 11:02:43;;;;;;;8.25;7.45;;;13.50;99.90;;;;;;5121740;27;20455;-61
2022/04/05 11:05:40;;;;;;;8.13;7.30;;;13.60;99.90;;;;;;5140607;27;20709;-61
2022/04/05 11:08:20;;;;;;;7.30;6.70;;;13.70;99.90;;;;;;5116951;27;20273;-61
2022/04/05 11:10:53;;;;;;;7.30;6.70;;;13.80;99.90;;;;;;5126347;27;20577;-62
2022/04/05 11:13:42;;;;;;;6.53;6.10;;;14.10;99.90;;;;;;5124586;27;20202;-61
2022/04/05 11:16:12;;;;;;;6.00;5.60;;;14.60;99.90;;;;;;5123978;27;20281;-57
2022/04/05 11:18:44;;;;;;;6.30;5.80;;;14.80;99.90;;;;;;5120856;27;20244;-62
2022/04/05 11:21:12;;;;;;;5.63;5.20;;;14.90;99.90;;;;;;5118334;27;20356;-62
2022/04/05 11:23:44;;;;;;;6.67;5.90;;;14.90;99.90;;;;;;5121946;27;20209;-61
2022/04/05 11:26:27;;;;;;;6.60;5.53;;;15.10;99.90;;;;;;5124781;27;20293;-62
2022/04/05 11:28:56;;;;;;;6.13;5.70;;;15.20;99.90;;;;;;5121767;27;20221;-62
2022/04/05 11:31:37;;;;;;;5.30;5.00;;;15.20;99.90;;;;;;5111568;27;20642;-62
2022/04/05 11:34:37;;;;;;;5.90;5.50;;;15.20;99.90;;;;;;5107516;27;20194;-62
2022/04/05 11:37:08;;;;;;;5.63;5.23;;;15.30;99.90;;;;;;5111530;27;20209;-62
2022/04/05 11:39:39;;;;;;;5.93;4.93;;;15.30;99.90;;;;;;5109434;27;20204;-62
2022/04/05 11:42:07;;;;;;;5.77;5.23;;;15.10;99.90;;;;;;5108642;27;20203;-62
2022/04/05 11:44:36;;;;;;;5.97;5.50;;;15.20;99.90;;;;;;5135121;27;20218;-62
2022/04/05 11:47:06;;;;;;;5.30;5.00;;;15.80;99.90;;;;;;5108982;27;20200;-67
2022/04/05 11:49:43;;;;;;;5.10;4.80;;;16.10;99.90;;;;;;5101482;28;20427;-66
2022/04/05 11:52:12;;;;;;;5.07;4.83;;;16.10;99.90;;;;;;5104428;27;20197;-68
2022/04/05 11:57:23;;;;;;;4.97;4.67;;;16.00;99.90;;;;;;5111455;27;20288;-68
2022/04/05 12:00:09;;;;;;;4.87;4.63;;;16.00;99.90;;;;;;5115098;27;20227;-67
2022/04/05 12:02:38;;;;;;;5.00;4.70;;;15.80;99.90;;;;;;5110487;27;21062;-67
2022/04/05 12:05:09;;;;;;;5.83;5.50;;;15.70;99.90;;;;;;5115487;27;20229;-67
2022/04/05 12:07:37;;;;;;;5.47;5.13;;;15.50;99.90;;;;;;5114164;27;20227;-68
2022/04/05 12:10:06;;;;;;;5.37;5.10;;;15.30;99.90;;;;;;5108459;27;20195;-67
2022/04/05 12:12:35;;;;;;;5.63;5.33;;;15.00;99.90;;;;;;5115511;27;20201;-67
2022/04/05 12:15:20;;;;;;;5.70;5.20;;;14.90;99.90;;;;;;5110498;27;20195;-67
2022/04/05 12:17:51;;;;;;;5.50;5.17;;;15.00;99.90;;;;;;5104431;27;20215;-67
2022/04/05 12:20:20;;;;;;;5.70;5.13;;;15.00;99.90;;;;;;5105769;27;20194;-67
2022/04/05 12:22:49;;;;;;;5.20;4.90;;;15.00;99.90;;;;;;5101688;27;20816;-67
2022/04/05 12:25:18;;;;;;;5.50;5.03;;;14.80;99.90;;;;;;5104781;27;20604;-68
2022/04/05 12:27:56;;;;;;;4.53;4.23;;;14.70;99.90;;;;;;5132545;27;20656;-66
2022/04/05 12:30:32;;;;;;;3.77;3.57;;;14.50;99.90;;;;;;5106198;27;20197;-67
2022/04/05 12:33:04;;;;;;;3.83;3.60;;;14.20;99.90;;;;;;5107901;27;20290;-67
2022/04/05 12:35:34;;;;;;;3.43;3.33;;;14.10;99.90;;;;;;5111338;27;20259;-67
2022/04/05 12:38:03;;;;;;;4.70;2.87;;;14.10;99.90;;;;;;5112033;27;20195;-66
2022/04/05 12:40:40;;;;;;;3.20;3.10;;;14.20;99.90;;;;;;5107894;27;20244;-66
2022/04/05 12:43:19;;;;;;;3.50;3.40;;;14.30;99.90;;;;;;5103561;27;20346;-66
2022/04/05 12:45:49;;;;;;;3.30;3.20;;;14.50;99.90;;;;;;5113385;27;20641;-67
2022/04/05 12:48:19;;;;;;;4.37;3.10;;;14.70;99.90;;;;;;5111855;27;20273;-68
2022/04/05 12:50:50;;;;;;;3.40;3.20;;;14.90;99.90;;;;;;5113057;27;20547;-67
2022/04/05 12:53:26;;;;;;;3.33;3.10;;;15.10;99.90;;;;;;5113173;27;21408;-67
2022/04/05 12:56:00;;;;;;;3.30;3.10;;;14.80;99.90;;;;;;5116287;27;20598;-67
2022/04/05 12:58:39;;;;;;;3.13;3.00;;;14.60;99.90;;;;;;5109200;27;20222;-67
2022/04/05 13:01:23;;;;;;;3.33;3.13;;;14.60;99.90;;;;;;5102836;27;20873;-67
2022/04/05 13:03:58;;;;;;;3.10;3.00;;;14.40;99.90;;;;;;5102423;27;20664;-67
2022/04/05 13:06:30;;;;;;;3.17;3.07;;;14.50;99.90;;;;;;5121267;27;20197;-67
2022/04/05 13:09:06;;;;;;;3.10;3.00;;;14.40;99.90;;;;;;5110018;27;20688;-67
2022/04/05 13:11:35;;;;;;;3.70;3.40;;;14.40;99.90;;;;;;5112601;27;20659;-67
2022/04/05 13:14:07;;;;;;;4.03;3.73;;;14.30;99.90;;;;;;5140262;27;20194;-66
2022/04/05 13:16:36;;;;;;;3.50;3.30;;;14.40;99.90;;;;;;5093358;28;20882;-67
2022/04/05 13:19:12;;;;;;;3.70;3.60;;;14.30;99.90;;;;;;5105753;27;20868;-67